Time;durP1;ratioP1;P1;durP2;ratioP2;P2;SDS_P1;SDS_P2;PMS_P1;PMS_P2;Temp;Humidity;BMP_temperature;BMP_pressure;BME280_temperature;BME280_humidity;BME280_pressure;Samples;Min_cycle;Max_cycle;Signal;HPM_P1;HPM_P2
2024/02/13 00:02:00;;;;;;;;;;;;;;;11.39;62.50;100344.03;4993973;28;19918;-81
2024/02/13 00:04:52;;;;;;;;;;;;;;;11.23;63.83;100349.25;5001788;28;19918;-82
2024/02/13 00:07:44;;;;;;;;;;;;;;;11.30;64.23;100341.38;4981566;28;19918;-83
2024/02/13 00:10:35;;;;;;;;;;;;;;;11.45;63.91;100345.44;4991182;28;19921;-83
2024/02/13 00:13:27;;;;;;;;;;;;;;;11.44;63.31;100352.00;5001100;28;19914;-82
2024/02/13 00:16:19;;;;;;;;;;;;;;;11.42;62.90;100351.56;5000944;28;19918;-83
2024/02/13 00:19:11;;;;;;;;;;;;;;;11.20;63.86;100354.56;4997976;28;19918;-82
2024/02/13 00:22:03;;;;;;;;;;;;;;;11.17;64.29;100355.22;5001148;28;19913;-82
2024/02/13 00:24:55;;;;;;;;;;;;;;;11.32;63.67;100350.00;5000909;28;19918;-79
2024/02/13 00:27:45;;;;;;;;;;;;;;;11.28;63.43;100357.22;4999905;28;19918;-81
2024/02/13 00:30:37;;;;;;;;;;;;;;;11.37;63.26;100359.91;5000560;28;19926;-80
2024/02/13 00:33:29;;;;;;;;;;;;;;;11.31;63.23;100353.06;5000646;28;19918;-80
2024/02/13 00:36:23;;;;;;;;;;;;;;;11.28;63.63;100356.41;4993333;28;20345;-80
2024/02/13 00:39:15;;;;;;;;;;;;;;;11.38;63.56;100359.56;4997582;28;19922;-80
2024/02/13 00:42:07;;;;;;;;;;;;;;;11.40;64.04;100359.25;4995038;28;19922;-80
2024/02/13 00:44:59;;;;;;;;;;;;;;;11.26;64.13;100364.13;5000596;28;19918;-81
2024/02/13 00:47:57;;;;;;;;;;;;;;;11.32;64.06;100365.53;5000051;28;20008;-83
2024/02/13 00:50:46;;;;;;;;;;;;;;;11.36;63.72;100370.00;4993700;28;19921;-83
2024/02/13 00:53:41;;;;;;;;;;;;;;;11.26;64.10;100375.03;5000339;28;19917;-82
2024/02/13 00:56:33;;;;;;;;;;;;;;;11.31;64.15;100372.91;5000194;28;19917;-80
2024/02/13 00:59:25;;;;;;;;;;;;;;;11.34;64.33;100382.31;4996219;28;19918;-82
2024/02/13 01:02:18;;;;;;;;;;;;;;;11.35;64.38;100379.28;4999560;28;20334;-83
2024/02/13 01:05:10;;;;;;;;;;;;;;;11.39;64.52;100374.78;4995067;28;19918;-82
2024/02/13 01:08:02;;;;;;;;;;;;;;;11.39;64.63;100385.66;5001795;28;19918;-82
2024/02/13 01:10:51;;;;;;;;;;;;;;;11.34;65.82;100387.78;4995475;28;20310;-81
2024/02/13 01:13:43;;;;;;;;;;;;;;;11.38;66.42;100388.72;4979096;28;19918;-82
2024/02/13 01:16:35;;;;;;;;;;;;;;;11.36;66.87;100386.34;4992077;28;19918;-83
2024/02/13 01:19:25;;;;;;;;;;;;;;;11.34;67.08;100394.03;4980259;28;19922;-83
2024/02/13 01:22:17;;;;;;;;;;;;;;;11.35;67.22;100397.53;4999396;28;19922;-82
2024/02/13 01:25:08;;;;;;;;;;;;;;;11.30;67.45;100395.00;4999334;28;19918;-80
2024/02/13 01:28:00;;;;;;;;;;;;;;;11.22;67.40;100401.31;4996716;28;20306;-81
2024/02/13 01:30:52;;;;;;;;;;;;;;;11.20;68.03;100411.69;5002982;28;19921;-82
2024/02/13 01:33:44;;;;;;;;;;;;;;;11.36;68.10;100412.75;4999535;28;19918;-81
2024/02/13 01:36:33;;;;;;;;;;;;;;;11.34;67.84;100413.06;4982471;28;20292;-82
2024/02/13 01:39:25;;;;;;;;;;;;;;;11.34;68.35;100420.44;4979928;28;20545;-80
2024/02/13 01:42:17;;;;;;;;;;;;;;;11.41;68.11;100426.97;4996829;28;19922;-81
2024/02/13 01:45:10;;;;;;;;;;;;;;;11.20;68.86;100419.88;4974761;28;19918;-80
2024/02/13 01:48:03;;;;;;;;;;;;;;;11.22;69.37;100420.34;5001460;28;19917;-80
2024/02/13 01:50:55;;;;;;;;;;;;;;;11.20;69.39;100411.69;5001574;28;19922;-81
2024/02/13 01:53:47;;;;;;;;;;;;;;;11.27;69.48;100414.72;5001076;28;19922;-80
2024/02/13 01:56:37;;;;;;;;;;;;;;;11.34;69.28;100420.44;5001036;28;20298;-81
2024/02/13 01:59:29;;;;;;;;;;;;;;;11.35;69.28;100416.59;4997421;28;19918;-82
2024/02/13 02:02:20;;;;;;;;;;;;;;;11.24;69.18;100424.31;5001161;28;20291;-81
2024/02/13 02:05:18;;;;;;;;;;;;;;;11.28;69.35;100422.53;5001349;28;19918;-83
2024/02/13 02:08:10;;;;;;;;;;;;;;;11.22;69.41;100417.63;4979876;28;19918;-81
2024/02/13 02:11:00;;;;;;;;;;;;;;;11.24;68.62;100420.81;4979841;28;19922;-82
2024/02/13 02:13:52;;;;;;;;;;;;;;;11.17;68.86;100424.06;4983478;28;19918;-81
2024/02/13 02:16:44;;;;;;;;;;;;;;;11.17;69.24;100421.34;5004043;28;19917;-80
2024/02/13 02:19:36;;;;;;;;;;;;;;;11.15;68.89;100424.38;4997499;28;19918;-82
2024/02/13 02:22:28;;;;;;;;;;;;;;;11.18;68.93;100422.09;5001173;28;19922;-80
2024/02/13 02:25:26;;;;;;;;;;;;;;;11.13;68.36;100420.34;5003603;28;20378;-82
2024/02/13 02:28:18;;;;;;;;;;;;;;;11.11;68.48;100422.63;4983031;28;19918;-83
2024/02/13 02:31:10;;;;;;;;;;;;;;;11.16;68.78;100425.16;4989920;28;19922;-82
2024/02/13 02:34:02;;;;;;;;;;;;;;;11.22;68.62;100425.78;5002958;28;19917;-80
2024/02/13 02:36:54;;;;;;;;;;;;;;;11.12;68.45;100424.22;5003043;28;19918;-81
2024/02/13 02:39:46;;;;;;;;;;;;;;;11.05;68.60;100424.72;4998963;28;19917;-80
2024/02/13 02:42:38;;;;;;;;;;;;;;;11.07;68.98;100424.41;5003225;28;19917;-80
2024/02/13 02:45:30;;;;;;;;;;;;;;;11.01;69.34;100426.50;5002940;28;19917;-80
2024/02/13 02:48:22;;;;;;;;;;;;;;;10.97;69.50;100424.75;5002243;28;20334;-81
2024/02/13 02:51:12;;;;;;;;;;;;;;;11.03;68.94;100426.97;5002767;28;19917;-81
2024/02/13 02:54:04;;;;;;;;;;;;;;;10.99;69.55;100433.38;5000990;28;19917;-81
2024/02/13 02:56:56;;;;;;;;;;;;;;;10.98;69.95;100439.94;4989679;28;20380;-81
2024/02/13 02:59:48;;;;;;;;;;;;;;;11.04;70.62;100436.72;4977018;28;19922;-81
2024/02/13 03:02:40;;;;;;;;;;;;;;;11.10;70.98;100443.59;5001551;28;19918;-81
2024/02/13 03:05:32;;;;;;;;;;;;;;;11.12;70.56;100449.50;5002385;28;19918;-81
2024/02/13 03:08:27;;;;;;;;;;;;;;;11.10;70.73;100457.19;5001259;28;19922;-82
2024/02/13 03:11:22;;;;;;;;;;;;;;;11.07;70.87;100460.56;4999242;28;20291;-82
2024/02/13 03:14:14;;;;;;;;;;;;;;;11.18;70.44;100449.31;5001972;28;19917;-81
2024/02/13 03:17:06;;;;;;;;;;;;;;;11.19;70.68;100453.63;4999760;28;19918;-80
2024/02/13 03:19:58;;;;;;;;;;;;;;;11.26;70.93;100459.41;4997039;28;19921;-81
2024/02/13 03:22:50;;;;;;;;;;;;;;;11.29;70.98;100456.81;4994701;28;19918;-81
2024/02/13 03:25:42;;;;;;;;;;;;;;;11.34;70.67;100458.56;5002040;28;20290;-81
2024/02/13 03:28:34;;;;;;;;;;;;;;;11.32;70.55;100458.91;5000685;28;19918;-81
2024/02/13 03:31:23;;;;;;;;;;;;;;;11.29;70.03;100453.28;4999210;28;19922;-81
2024/02/13 03:34:15;;;;;;;;;;;;;;;11.25;70.01;100457.78;4990260;28;19917;-81
2024/02/13 03:37:07;;;;;;;;;;;;;;;11.19;70.58;100464.53;4987613;28;19918;-81
2024/02/13 03:39:59;;;;;;;;;;;;;;;11.09;70.51;100476.56;4977285;28;19917;-81
2024/02/13 03:42:51;;;;;;;;;;;;;;;11.08;70.46;100478.47;4993913;28;19917;-81
2024/02/13 03:45:42;;;;;;;;;;;;;;;11.06;70.50;100483.47;5002690;28;19917;-83
2024/02/13 03:48:34;;;;;;;;;;;;;;;11.04;70.17;100476.75;5005072;28;19918;-84
2024/02/13 03:51:26;;;;;;;;;;;;;;;11.04;69.64;100485.69;5004214;28;19922;-82
2024/02/13 03:54:18;;;;;;;;;;;;;;;10.91;69.49;100494.88;5002807;28;19922;-82
2024/02/13 03:57:10;;;;;;;;;;;;;;;10.89;69.62;100494.38;5002446;28;20391;-82
2024/02/13 04:00:03;;;;;;;;;;;;;;;10.75;69.96;100491.03;4997108;28;19917;-82
2024/02/13 04:02:53;;;;;;;;;;;;;;;10.72;70.54;100499.81;4995704;28;20379;-81
2024/02/13 04:05:51;;;;;;;;;;;;;;;10.72;69.74;100497.09;5001687;28;20395;-82
2024/02/13 04:08:44;;;;;;;;;;;;;;;10.80;69.51;100500.94;5000001;28;19918;-81
2024/02/13 04:11:37;;;;;;;;;;;;;;;10.80;69.15;100504.47;4997168;28;19922;-81
2024/02/13 04:14:29;;;;;;;;;;;;;;;10.89;68.73;100505.25;5001239;28;19918;-81
2024/02/13 04:17:21;;;;;;;;;;;;;;;10.89;68.49;100507.19;5001098;28;20379;-81
2024/02/13 04:20:13;;;;;;;;;;;;;;;10.88;68.71;100506.38;4983923;28;19927;-81
2024/02/13 04:23:03;;;;;;;;;;;;;;;10.94;68.31;100521.41;4987500;28;19918;-81
2024/02/13 04:25:55;;;;;;;;;;;;;;;10.85;67.65;100514.38;4989273;28;20307;-81
2024/02/13 04:28:47;;;;;;;;;;;;;;;10.87;67.24;100521.09;4979394;28;19918;-81
2024/02/13 04:31:39;;;;;;;;;;;;;;;10.84;67.13;100524.47;4980906;28;19925;-81
2024/02/13 04:34:31;;;;;;;;;;;;;;;10.79;67.01;100529.25;4989574;28;19918;-81
2024/02/13 04:37:22;;;;;;;;;;;;;;;10.87;66.41;100529.25;5000290;28;19918;-81
2024/02/13 04:40:14;;;;;;;;;;;;;;;10.84;66.68;100531.81;4994824;28;19918;-82
2024/02/13 04:43:06;;;;;;;;;;;;;;;10.94;66.69;100534.22;5000369;28;19917;-81
2024/02/13 04:45:58;;;;;;;;;;;;;;;11.01;66.36;100535.34;4980832;28;20387;-82
2024/02/13 04:48:50;;;;;;;;;;;;;;;10.99;65.64;100536.75;4978592;28;19918;-82
2024/02/13 04:51:42;;;;;;;;;;;;;;;10.94;64.82;100535.00;4978953;28;19943;-82
2024/02/13 04:54:34;;;;;;;;;;;;;;;10.96;64.48;100538.22;4999336;28;19917;-82
2024/02/13 04:57:33;;;;;;;;;;;;;;;10.91;64.15;100549.28;4999822;28;19918;-82
2024/02/13 05:00:28;;;;;;;;;;;;;;;10.88;64.37;100552.63;4993753;28;19918;-82
2024/02/13 05:03:25;;;;;;;;;;;;;;;10.73;64.71;100555.81;5000667;28;20287;-82
2024/02/13 05:09:23;;;;;;;;;;;;;;;10.40;65.59;100565.56;4985724;28;19918;-82
2024/02/13 05:12:14;;;;;;;;;;;;;;;10.59;65.26;100568.78;4990977;28;19925;-81
2024/02/13 05:15:06;;;;;;;;;;;;;;;10.48;65.19;100571.00;4987385;28;19918;-82
2024/02/13 05:17:58;;;;;;;;;;;;;;;10.34;65.81;100574.97;4994610;28;20399;-81
2024/02/13 05:20:50;;;;;;;;;;;;;;;10.41;65.61;100573.41;4995568;28;20295;-81
2024/02/13 05:23:42;;;;;;;;;;;;;;;10.51;66.38;100572.28;4989249;28;19918;-81
2024/02/13 05:26:34;;;;;;;;;;;;;;;10.43;66.04;100568.44;4990435;28;19918;-82
2024/02/13 05:29:26;;;;;;;;;;;;;;;10.29;65.91;100582.16;4997380;28;19918;-81
2024/02/13 05:32:18;;;;;;;;;;;;;;;10.11;66.11;100583.19;4999578;28;19925;-81
2024/02/13 05:35:07;;;;;;;;;;;;;;;10.08;66.51;100585.75;4997508;28;19918;-82
2024/02/13 05:38:00;;;;;;;;;;;;;;;9.97;66.83;100601.53;5001349;28;19918;-84
2024/02/13 05:46:55;;;;;;;;;;;;;;;9.30;69.75;100601.66;5599629;23;19925;-82
2024/02/13 05:49:47;;;;;;;;;;;;;;;9.55;69.37;100615.72;5002893;28;19922;-82
2024/02/13 05:52:40;;;;;;;;;;;;;;;9.70;69.09;100626.19;4990292;28;19926;-81
2024/02/13 05:55:35;;;;;;;;;;;;;;;9.86;67.65;100621.91;5009311;28;19925;-82
2024/02/13 05:58:34;;;;;;;;;;;;;;;9.23;68.87;100628.44;5005731;28;19918;-82
2024/02/13 06:02:45;;;;;;;;;;;;;;;9.30;69.74;100636.91;4913574;29;19920;-82
2024/02/13 06:05:52;;;;;;;;;;;;;;;9.20;70.03;100637.16;4946891;28;19918;-82
2024/02/13 06:15:09;;;;;;;;;;;;;;;9.63;67.54;100655.66;4926243;29;19927;-80
2024/02/13 06:18:01;;;;;;;;;;;;;;;9.63;67.00;100655.66;4932269;29;19923;-80
2024/02/13 06:20:53;;;;;;;;;;;;;;;9.23;67.41;100652.84;4926748;29;19919;-81
2024/02/13 06:23:45;;;;;;;;;;;;;;;8.67;70.18;100666.03;4919869;29;19923;-78
2024/02/13 06:26:37;;;;;;;;;;;;;;;7.62;73.54;100673.94;4929227;29;20400;-80
2024/02/13 06:29:34;;;;;;;;;;;;;;;7.30;76.85;100677.47;4925687;29;19930;-78
2024/02/13 06:32:23;;;;;;;;;;;;;;;7.47;78.49;100681.50;4924097;29;19927;-78
2024/02/13 06:35:15;;;;;;;;;;;;;;;7.50;78.08;100681.75;4924644;29;19923;-78
2024/02/13 06:38:07;;;;;;;;;;;;;;;7.64;77.51;100688.00;4919018;29;19919;-77
2024/02/13 06:40:59;;;;;;;;;;;;;;;7.71;77.45;100691.13;4918059;29;19919;-79
2024/02/13 06:43:51;;;;;;;;;;;;;;;7.73;77.04;100702.44;4923676;29;19919;-81
2024/02/13 06:46:43;;;;;;;;;;;;;;;7.52;78.17;100712.00;4918976;29;19919;-81
2024/02/13 06:49:35;;;;;;;;;;;;;;;7.46;78.66;100718.59;4933260;29;19923;-79
2024/02/13 06:52:27;;;;;;;;;;;;;;;7.45;78.51;100719.69;4938767;29;19928;-81
2024/02/13 06:55:19;;;;;;;;;;;;;;;7.40;78.38;100722.47;4938919;29;19923;-81
2024/02/13 06:58:11;;;;;;;;;;;;;;;7.25;78.61;100720.00;4941775;29;19919;-81
2024/02/13 07:01:02;;;;;;;;;;;;;;;7.36;79.49;100724.16;4945290;29;19919;-80
2024/02/13 07:03:54;;;;;;;;;;;;;;;7.70;77.41;100730.13;4942619;29;19904;-81
2024/02/13 07:06:44;;;;;;;;;;;;;;;7.68;77.01;100726.09;4937215;29;19923;-81
2024/02/13 07:09:35;;;;;;;;;;;;;;;7.79;76.80;100742.97;4936594;29;19923;-81
2024/02/13 07:12:27;;;;;;;;;;;;;;;7.95;76.06;100742.41;4942992;29;19927;-81
2024/02/13 07:15:19;;;;;;;;;;;;;;;7.89;76.40;100750.91;4937806;29;20312;-81
2024/02/13 07:18:11;;;;;;;;;;;;;;;7.86;77.00;100751.53;4933660;29;19927;-80
2024/02/13 07:24:44;;;;;;;;;;;;;;;8.03;77.25;100765.28;4910842;29;19919;-81
2024/02/13 07:27:34;;;;;;;;;;;;;;;8.02;77.74;100777.25;4933664;29;19923;-81
2024/02/13 07:30:26;;;;;;;;;;;;;;;8.13;77.97;100775.94;4933090;29;19919;-82
2024/02/13 07:33:15;;;;;;;;;;;;;;;8.26;78.28;100785.22;4946639;28;20304;-81
2024/02/13 07:36:05;;;;;;;;;;;;;;;8.25;78.38;100791.75;4945670;29;20417;-79
2024/02/13 07:38:57;;;;;;;;;;;;;;;8.27;78.36;100794.97;4946004;29;19911;-80
2024/02/13 07:41:52;;;;;;;;;;;;;;;8.37;78.62;100805.66;4946137;29;19927;-82
2024/02/13 07:44:43;;;;;;;;;;;;;;;8.55;79.32;100810.19;4945525;28;19911;-84
2024/02/13 07:47:28;;;;;;;;;;;;;;;8.72;78.85;100817.75;4949294;28;19911;-85
2024/02/13 07:50:18;;;;;;;;;;;;;;;8.56;79.68;100823.44;4935239;29;19927;-83
2024/02/13 07:53:10;;;;;;;;;;;;;;;8.67;80.46;100824.06;4933742;28;19911;-85
2024/02/13 07:55:59;;;;;;;;;;;;;;;8.95;79.19;100824.88;4935710;29;19912;-84
2024/02/13 07:58:51;;;;;;;;;;;;;;;9.15;78.40;100832.59;5134820;23;19943;-82
2024/02/13 08:01:41;;;;;;;;;;;;;;;9.28;77.50;100841.84;5015454;28;19941;-84
2024/02/13 08:04:28;;;;;;;;;;;;;;;9.30;77.25;100842.34;5002083;28;19930;-81
2024/02/13 08:07:15;;;;;;;;;;;;;;;9.35;77.14;100842.22;5007675;28;19910;-85
2024/02/13 08:10:07;;;;;;;;;;;;;;;9.52;75.51;100850.56;4999617;28;19930;-82
2024/02/13 08:12:59;;;;;;;;;;;;;;;9.66;75.39;100856.75;5007989;28;19922;-80
2024/02/13 08:15:51;;;;;;;;;;;;;;;9.77;74.65;100865.47;4987933;28;19917;-79
2024/02/13 08:18:45;;;;;;;;;;;;;;;9.94;74.19;100856.69;5001418;28;19922;-81
2024/02/13 08:21:37;;;;;;;;;;;;;;;10.01;72.61;100862.47;4988214;28;19918;-82
2024/02/13 08:24:29;;;;;;;;;;;;;;;10.16;72.55;100854.78;4994088;28;19918;-81
2024/02/13 09:02:56;;;;;;;;;;;;;;;10.99;64.37;100887.75;5492763;23;19925;-82
2024/02/13 09:05:47;;;;;;;;;;;;;;;11.06;64.01;100894.38;5001286;28;19926;-82
2024/02/13 09:08:40;;;;;;;;;;;;;;;11.04;62.88;100896.59;5012951;28;19918;-82
2024/02/13 09:11:32;;;;;;;;;;;;;;;11.06;63.11;100897.09;5001626;28;20399;-81
2024/02/13 09:14:24;;;;;;;;;;;;;;;11.08;62.77;100903.00;4992303;28;19918;-81
2024/02/13 09:17:13;;;;;;;;;;;;;;;11.19;62.69;100900.81;4988102;28;20679;-81
2024/02/13 09:20:05;;;;;;;;;;;;;;;11.25;60.51;100902.28;4983107;28;19918;-81
2024/02/13 09:22:56;;;;;;;;;;;;;;;11.31;60.64;100911.91;4980245;28;20403;-82
2024/02/13 09:25:48;;;;;;;;;;;;;;;11.47;60.52;100915.00;4982097;28;19926;-82
2024/02/13 09:28:40;;;;;;;;;;;;;;;11.63;59.68;100924.31;4979432;28;19918;-81
2024/02/13 09:31:30;;;;;;;;;;;;;;;11.79;61.09;100921.97;4982521;28;19926;-80
2024/02/13 09:34:22;;;;;;;;;;;;;;;11.88;61.20;100931.00;4986912;28;19918;-82
2024/02/13 09:37:13;;;;;;;;;;;;;;;11.97;64.10;100927.16;4987667;28;19918;-81
2024/02/13 09:40:05;;;;;;;;;;;;;;;12.10;64.71;100932.75;4975068;28;19922;-80
2024/02/13 09:42:58;;;;;;;;;;;;;;;12.21;65.49;100936.78;4980059;28;19938;-82
2024/02/13 09:45:50;;;;;;;;;;;;;;;12.22;64.77;100941.13;4982183;28;19926;-81
2024/02/13 09:48:47;;;;;;;;;;;;;;;12.23;64.42;100935.34;4980316;28;19918;-82
2024/02/13 09:51:40;;;;;;;;;;;;;;;12.25;65.58;100946.72;4998245;28;19926;-82
2024/02/13 09:54:30;;;;;;;;;;;;;;;12.39;65.52;100946.59;4987092;28;20375;-82
2024/02/13 09:57:21;;;;;;;;;;;;;;;12.51;64.91;100957.63;4984608;28;19922;-81
2024/02/13 10:00:15;;;;;;;;;;;;;;;12.58;65.39;100957.97;4979757;28;19918;-81
2024/02/13 10:03:07;;;;;;;;;;;;;;;12.71;66.06;100959.69;4980495;28;19918;-80
2024/02/13 10:05:58;;;;;;;;;;;;;;;12.75;65.58;100971.56;4980735;28;19922;-81
2024/02/13 10:08:53;;;;;;;;;;;;;;;12.93;64.68;100977.00;4976271;28;19926;-80
2024/02/13 10:11:42;;;;;;;;;;;;;;;13.02;65.14;100975.03;4993721;28;19926;-82
2024/02/13 10:14:34;;;;;;;;;;;;;;;13.09;65.51;100981.63;4988871;28;19917;-82
2024/02/13 10:17:26;;;;;;;;;;;;;;;13.13;66.49;100979.88;4986215;28;20346;-81
2024/02/13 10:20:21;;;;;;;;;;;;;;;13.07;66.58;100983.88;4980440;28;19922;-80
2024/02/13 10:23:17;;;;;;;;;;;;;;;13.19;66.06;100980.50;4986050;28;19918;-82
2024/02/13 10:26:13;;;;;;;;;;;;;;;13.31;66.32;100983.34;4985401;28;19918;-81
2024/02/13 10:29:05;;;;;;;;;;;;;;;13.44;65.32;100987.81;4983022;28;19918;-81
2024/02/13 10:32:04;;;;;;;;;;;;;;;13.59;66.20;100981.00;4989176;28;20303;-82
2024/02/13 10:34:54;;;;;;;;;;;;;;;13.59;64.89;100984.53;4984357;28;19918;-82
2024/02/13 10:37:46;;;;;;;;;;;;;;;13.80;62.68;100987.31;4991761;28;19922;-82
2024/02/13 10:40:39;;;;;;;;;;;;;;;13.94;63.24;100981.59;4995858;28;19922;-82
2024/02/13 10:43:29;;;;;;;;;;;;;;;14.10;61.21;100982.63;4987289;28;20409;-82
2024/02/13 10:46:19;;;;;;;;;;;;;;;14.30;60.19;100987.31;4985938;28;19922;-81
2024/02/13 10:49:18;;;;;;;;;;;;;;;14.38;59.10;100978.25;4993149;28;19918;-81
2024/02/13 10:52:10;;;;;;;;;;;;;;;14.57;58.73;100979.72;4996562;28;19922;-82
2024/02/13 10:55:03;;;;;;;;;;;;;;;14.61;56.32;100978.72;4993171;28;19922;-81
2024/02/13 10:57:56;;;;;;;;;;;;;;;14.73;55.16;100975.25;4986259;28;20391;-82
2024/02/13 11:00:48;;;;;;;;;;;;;;;14.94;53.86;100978.72;4984971;28;19922;-82
2024/02/13 11:03:45;;;;;;;;;;;;;;;15.09;53.22;100977.25;4984883;28;19918;-82
2024/02/13 11:06:37;;;;;;;;;;;;;;;15.16;53.92;100977.53;4992181;28;19922;-82
2024/02/13 11:09:29;;;;;;;;;;;;;;;15.21;53.18;100972.63;4990356;28;19918;-81
2024/02/13 11:12:21;;;;;;;;;;;;;;;15.26;56.33;100974.34;4989176;28;19922;-81
2024/02/13 11:15:14;;;;;;;;;;;;;;;15.34;56.79;100978.91;4987962;28;19917;-82
2024/02/13 11:18:11;;;;;;;;;;;;;;;15.37;55.70;100981.78;4984156;28;19918;-82
2024/02/13 11:21:08;;;;;;;;;;;;;;;15.37;58.68;100986.47;4989282;28;19922;-81
2024/02/13 11:24:03;;;;;;;;;;;;;;;15.28;57.55;100985.78;4988935;28;19918;-81
2024/02/13 11:27:03;;;;;;;;;;;;;;;15.40;57.43;100981.09;4981796;28;19918;-81
2024/02/13 11:30:02;;;;;;;;;;;;;;;15.54;57.51;100980.00;5000315;28;19918;-81
2024/02/13 11:32:54;;;;;;;;;;;;;;;15.53;56.82;100986.63;4981690;28;20384;-81
2024/02/13 11:35:52;;;;;;;;;;;;;;;15.61;55.31;100985.72;4992815;28;19918;-81
2024/02/13 11:38:42;;;;;;;;;;;;;;;15.66;53.88;100980.00;4987824;28;19917;-81
2024/02/13 11:41:34;;;;;;;;;;;;;;;15.65;54.04;100987.41;4984725;28;19918;-81
2024/02/13 11:44:25;;;;;;;;;;;;;;;15.88;54.51;100985.03;4985733;28;20303;-82
2024/02/13 11:47:18;;;;;;;;;;;;;;;15.78;52.98;100990.97;4981580;28;19918;-82
2024/02/13 11:50:08;;;;;;;;;;;;;;;15.94;52.73;100994.63;4979566;28;19918;-83
2024/02/13 11:52:57;;;;;;;;;;;;;;;16.01;51.65;100994.03;4989128;28;19926;-81
2024/02/13 11:55:52;;;;;;;;;;;;;;;16.12;51.57;100990.47;4989145;28;19918;-81
2024/02/13 11:58:45;;;;;;;;;;;;;;;16.27;50.94;100989.75;4995136;28;19926;-83
2024/02/13 12:01:39;;;;;;;;;;;;;;;16.39;50.01;100982.66;4991601;28;19926;-82
2024/02/13 12:04:34;;;;;;;;;;;;;;;16.46;51.46;100994.63;4983933;28;19918;-81
2024/02/13 12:07:26;;;;;;;;;;;;;;;16.64;51.64;100989.69;4990229;28;19918;-83
2024/02/13 12:10:18;;;;;;;;;;;;;;;16.64;52.10;100985.00;4988242;28;19922;-82
2024/02/13 12:13:10;;;;;;;;;;;;;;;16.67;50.62;100988.97;4987112;28;19922;-81
2024/02/13 12:16:04;;;;;;;;;;;;;;;16.74;50.19;100982.88;4989519;28;20379;-82
2024/02/13 12:18:59;;;;;;;;;;;;;;;16.98;49.51;100983.56;4995507;28;19918;-83
2024/02/13 12:21:51;;;;;;;;;;;;;;;16.87;48.32;100967.94;4989318;28;19918;-82
2024/02/13 12:24:46;;;;;;;;;;;;;;;16.89;47.96;100960.97;4995437;28;19918;-82
2024/02/13 12:27:35;;;;;;;;;;;;;;;17.20;48.04;100968.44;4989719;28;19918;-82
2024/02/13 12:30:24;;;;;;;;;;;;;;;17.20;46.67;100973.16;4980555;28;20307;-82
2024/02/13 12:33:20;;;;;;;;;;;;;;;17.21;47.21;100961.00;4987945;28;19922;-82
2024/02/13 12:36:18;;;;;;;;;;;;;;;17.26;45.12;100963.50;4977137;28;19921;-81
2024/02/13 12:39:20;;;;;;;;;;;;;;;17.36;44.28;100963.75;4986884;28;20326;-82
2024/02/13 12:42:10;;;;;;;;;;;;;;;17.37;44.11;100954.34;4990584;28;20479;-83
2024/02/13 12:45:02;;;;;;;;;;;;;;;17.52;45.66;100958.25;4982372;28;19922;-81
2024/02/13 12:47:51;;;;;;;;;;;;;;;17.67;45.06;100953.94;4988895;28;19922;-81
2024/02/13 12:50:41;;;;;;;;;;;;;;;17.78;45.18;100950.25;4990071;28;20302;-81
2024/02/13 12:53:34;;;;;;;;;;;;;;;17.75;45.57;100952.94;4986109;28;19922;-81
2024/02/13 12:56:23;;;;;;;;;;;;;;;17.71;45.26;100950.09;4982177;28;20074;-81
2024/02/13 12:59:15;;;;;;;;;;;;;;;17.73;44.78;100957.97;4982573;28;20307;-82
2024/02/13 13:02:08;;;;;;;;;;;;;;;17.77;45.83;100951.44;4983923;28;20295;-81
2024/02/13 13:05:00;;;;;;;;;;;;;;;17.77;44.36;100953.38;4984089;28;20391;-82
2024/02/13 13:07:52;;;;;;;;;;;;;;;17.86;44.42;100953.97;4989823;28;19918;-83
2024/02/13 13:10:45;;;;;;;;;;;;;;;18.03;45.44;100959.06;4990296;28;20303;-82
2024/02/13 13:13:38;;;;;;;;;;;;;;;18.09;46.65;100956.81;4986659;28;20395;-83
2024/02/13 13:16:33;;;;;;;;;;;;;;;18.02;46.83;100959.44;4987610;28;19918;-82
2024/02/13 13:19:26;;;;;;;;;;;;;;;17.78;46.68;100954.94;4977901;28;19922;-83
2024/02/13 13:22:21;;;;;;;;;;;;;;;17.67;46.84;100948.44;4987558;28;19922;-82
2024/02/13 13:25:12;;;;;;;;;;;;;;;17.91;47.06;100954.50;4990294;28;19917;-82
2024/02/13 13:28:07;;;;;;;;;;;;;;;17.75;47.10;100952.94;4974468;28;20391;-82
2024/02/13 13:30:57;;;;;;;;;;;;;;;17.78;47.83;100939.25;4981652;28;19922;-82
2024/02/13 13:33:47;;;;;;;;;;;;;;;17.75;47.01;100950.97;4987470;28;19922;-84
2024/02/13 13:36:39;;;;;;;;;;;;;;;17.88;47.77;100951.66;4984452;28;19922;-82
2024/02/13 13:39:28;;;;;;;;;;;;;;;17.88;46.28;100946.94;4982689;28;19917;-82
2024/02/13 13:42:20;;;;;;;;;;;;;;;17.65;44.74;100948.78;4989129;28;19918;-82
2024/02/13 13:45:10;;;;;;;;;;;;;;;17.66;42.73;100947.63;4986883;28;19918;-83
2024/02/13 13:48:15;;;;;;;;;;;;;;;17.69;44.87;100949.66;4980662;28;19918;-83
2024/02/13 13:51:07;;;;;;;;;;;;;;;17.72;43.33;100945.41;4984886;28;20640;-82
2024/02/13 13:53:59;;;;;;;;;;;;;;;17.66;42.57;100931.13;4999105;28;19933;-82
2024/02/13 13:56:51;;;;;;;;;;;;;;;17.86;43.05;100946.53;4985525;28;19922;-82
2024/02/13 13:59:43;;;;;;;;;;;;;;;17.91;42.96;100956.44;4985079;28;20387;-83
2024/02/13 14:02:35;;;;;;;;;;;;;;;17.82;42.73;100951.16;4980713;28;19919;-89
2024/02/13 14:05:27;;;;;;;;;;;;;;;17.82;42.03;100950.34;4995933;28;19917;-84
2024/02/13 14:08:19;;;;;;;;;;;;;;;17.91;42.99;100950.94;4988805;28;19922;-85
2024/02/13 14:11:11;;;;;;;;;;;;;;;17.78;43.78;100946.69;4990085;28;19918;-84
2024/02/13 14:14:00;;;;;;;;;;;;;;;17.64;43.19;100955.41;4992237;28;19922;-85
2024/02/13 14:16:52;;;;;;;;;;;;;;;17.59;44.36;100961.19;4997530;28;20391;-85
2024/02/13 14:19:44;;;;;;;;;;;;;;;17.60;42.95;100959.25;4990058;28;20383;-86
2024/02/13 14:22:36;;;;;;;;;;;;;;;17.54;43.18;100961.44;4986466;28;20404;-85
2024/02/13 14:25:29;;;;;;;;;;;;;;;17.50;43.00;100963.31;4995883;28;19922;-85
2024/02/13 14:28:18;;;;;;;;;;;;;;;17.60;42.08;100975.75;4990503;28;20383;-84
2024/02/13 14:31:15;;;;;;;;;;;;;;;17.74;40.73;100971.38;4995046;28;19918;-85
2024/02/13 14:34:05;;;;;;;;;;;;;;;17.74;42.24;100965.88;4990022;28;19922;-85
2024/02/13 14:36:57;;;;;;;;;;;;;;;17.66;41.91;100971.56;5003300;28;19917;-85
2024/02/13 14:39:50;;;;;;;;;;;;;;;17.70;42.12;100975.19;4989444;28;19938;-86
2024/02/13 14:42:39;;;;;;;;;;;;;;;17.67;41.59;100975.94;4982899;28;20363;-86
2024/02/13 14:45:29;;;;;;;;;;;;;;;17.56;40.54;100975.63;4995584;28;19922;-87
2024/02/13 14:48:21;;;;;;;;;;;;;;;17.64;40.95;100976.63;4989246;28;19918;-87
2024/02/13 14:51:18;;;;;;;;;;;;;;;17.56;41.36;100981.13;4990149;28;19918;-86
2024/02/13 14:54:10;;;;;;;;;;;;;;;17.57;42.76;100974.50;4995257;28;19922;-86
2024/02/13 14:57:00;;;;;;;;;;;;;;;17.60;42.16;100973.00;4996104;28;20295;-82
2024/02/13 14:59:51;;;;;;;;;;;;;;;17.63;42.63;100980.53;4992724;28;19918;-84
2024/02/13 15:02:43;;;;;;;;;;;;;;;17.72;42.94;100973.72;4992368;28;19922;-84
2024/02/13 15:05:33;;;;;;;;;;;;;;;17.70;42.05;100978.75;4995255;28;19921;-84
2024/02/13 15:08:25;;;;;;;;;;;;;;;17.69;42.51;100979.09;4989124;28;20299;-84
2024/02/13 15:11:22;;;;;;;;;;;;;;;17.77;42.27;100975.38;4991649;28;19918;-84
2024/02/13 15:14:14;;;;;;;;;;;;;;;17.72;42.64;100990.22;4995867;28;19925;-82
2024/02/13 15:17:06;;;;;;;;;;;;;;;17.68;42.17;100992.06;4996918;28;19918;-82
2024/02/13 15:19:59;;;;;;;;;;;;;;;17.71;42.59;100994.13;4993955;28;19933;-83
2024/02/13 15:22:51;;;;;;;;;;;;;;;17.60;42.75;100995.00;4984167;28;19917;-82
2024/02/13 15:25:43;;;;;;;;;;;;;;;17.64;42.46;100990.38;4993569;28;19917;-83
2024/02/13 15:28:35;;;;;;;;;;;;;;;17.62;42.92;100989.94;4993797;28;19922;-82
2024/02/13 15:31:27;;;;;;;;;;;;;;;17.54;43.06;100995.22;4988206;28;20310;-83
2024/02/13 15:34:16;;;;;;;;;;;;;;;17.56;44.05;100992.13;5002933;28;20402;-82
2024/02/13 15:49:28;;;;;;;;;;;;;;;17.18;45.55;101013.91;4997017;28;19926;-82
2024/02/13 15:52:20;;;;;;;;;;;;;;;17.04;45.94;101020.63;4983792;28;19922;-83
2024/02/13 15:55:11;;;;;;;;;;;;;;;17.14;45.57;101013.03;4981283;28;19918;-83